X  Fermer Données météorologiques d'aviation de Metar     EDDK Cologne Bonn Airport
Température
7°C Température
6°C Point de rosée
93% Humidité



Vent
16 KM/H
10 MPH
4 M/S
9 KTS



240°
OSO
Conditions actuelles

Pluie Pluie
Pression 1008.81 (hPa) - 29.79 (inHg)
Visibilité 6 (mile) - 9.7 (km)
Aéroport
Code de l'aéroport EDDK

Emplacement: Cologne Bonn Airport
Distance: 56 (km)

Metar:
EDDK 190820Z AUTO 24009KT 9999 RA OVC011 07/06 Q1009 TEMPO 26015G25KT 4000 NSW BKN008

Temps: 2024-04-19 10:20 CEST